Tiempo atmosférico en la estación meteorológica de Cabrales, Asturias (458 m.)



Fecha
DESCASC
Temp. máxima en grados centígrados (hora)
DESCASC
Temp. mínima en grados centígrados (hora)
DESCASC
Temp. media en grados centígrados
DESCASC
Racha de viento máxima en m/sg (hora)
DESCASC
Velocidad máxima media en intervalos de 10 minutos(hora)
DESCASC
Precipitaciones diarias en mm
DESCASC
Precipitaciones de 00:00 a 06:00 en mm
DESCASC
Precipitaciones de 06:00 a 12:00 en mm
DESCASC
Precipitaciones de 12:00 a 18:00 en mm
DESCASC
Precipitaciones de 18:00 a 24:00 en mm
DESCASC
14-02-2019 20.2 (14:20) 6.3 (03:00) 13.3 4.72 (16:50) 3.89 (17:00) 0 0 0 0 0
13-02-2019 17.4 (15:20) 4.6 (02:20) 11 5.28 (15:20) 3.89 (16:30) 0 0 0 0 0
12-02-2019 14.2 (15:50) 2.1 (08:40) 8.1 6.11 (02:30) 3.33 (02:30) 0 0 0 0 0
11-02-2019 12.2 (16:40) 3.8 (07:50) 8 6.94 (18:00) 4.72 (02:40) 0 0 0 0 0
10-02-2019 17.4 (07:50) 5.3 (00:00) 11.3 25 (05:00) 15.83 (04:10) 7.8 0 4 3.2 0.6
09-02-2019 16.8 (16:30) 5.8 (00:00) 11.3 12.22 (16:40) 6.39 (16:40) 0 0 0 0 0
08-02-2019 13.8 (16:00) 3.3 (00:00) 8.6 6.39 (17:00) 5 (17:00) 0 0 0 0 0
07-02-2019 10.3 (15:50) 5.2 (00:00) 7.8 8.33 (12:50) 5.28 (09:40) 0.6 0 0.6 0 0
06-02-2019 15.7 (15:10) 4.2 (00:00) 9.9 4.44 (15:10) 3.33 (15:10) 0 0 0 0 0
05-02-2019 15.5 (13:30) 5.9 (00:00) 10.7 6.11 (16:10) 3.89 (16:20) 0 0 0 0 0
04-02-2019 14.1 (14:30) 0.2 (00:00) 7.2 3.89 (09:30) 2.78 (18:50) 0 0 0 0 0
03-02-2019 9.6 (15:20) 0.8 (00:00) 5.2 8.33 (06:10) 5.28 (06:10) 1.4 1.2 0.2 0 0
02-02-2019 -- (--) -- (--) -- -- (--) -- (--) -- 14.6 4.4 4.4 --
01-02-2019 8.4 (16:00) 3 (00:00) 5.7 26.39 (23:20) 15.83 (23:20) 10.2 0 0.2 0.2 9.8
31-01-2019 14.4 (13:20) 7.7 (00:00) 11 8.61 (17:10) 5.28 (12:20) 25.2 8.6 1.8 10.2 4.6
30-01-2019 11.5 (13:50) 3.4 (00:00) 7.5 12.78 (06:50) 7.78 (01:20) 6 0.2 0 1.2 4.6
29-01-2019 11.5 (11:20) 3.4 (00:00) 7.5 27.78 (13:40) 17.22 (13:40) 10.4 0 0.4 6.2 3.8
28-01-2019 8.6 (14:30) 5.1 (00:00) 6.9 24.72 (07:30) 15.83 (07:20) 8 0.6 4 3.2 0.2
27-01-2019 7.6 (01:10) 4.3 (00:00) 6 23.89 (06:10) 15 (06:20) 13.6 2.8 4.2 3.8 2.8
26-01-2019 12.6 (15:10) 2.8 (00:00) 7.7 8.33 (15:50) 6.11 (16:00) 0 0 0 0 0
25-01-2019 10.8 (14:40) 6.4 (00:00) 8.6 10.56 (10:20) 6.94 (04:40) 1 0.2 0.6 0.2 0
24-01-2019 9.4 (07:50) 8 (00:00) 8.7 16.94 (00:40) 11.67 (00:40) 38.6 18.8 10.8 7.6 1.4
23-01-2019 8.8 (09:20) 5.7 (00:00) 7.3 24.17 (06:30) 15.28 (06:40) 40.4 18.2 7.8 4.4 10
22-01-2019 6.3 (04:00) 3.5 (00:00) 4.9 16.94 (12:40) 11.39 (15:20) 42 0 7.8 12 22.2
21-01-2019 8.9 (15:30) 3.8 (00:00) 6.3 7.5 (05:00) 4.44 (00:20) 13.4 7.2 5.6 0.6 0
20-01-2019 7.4 (13:40) 4.8 (00:00) 6.1 14.44 (06:20) 8.89 (06:00) 22 9 3.8 5.6 3.6
19-01-2019 6.4 (00:50) 4 (00:00) 5.2 8.33 (16:10) 6.11 (23:10) 15.4 1.4 0.2 9 4.8

Gráficas

Temp. máximas Temp. mínimas Temp. medias Precipitaciones Rachas de viento máximas Velocidades máximas media en intervalos de 10 minutos

Datos horarios

Fecha y hora oficial Temperatura (ºC) Velocidad del viento (km/h) Dirección del viento Racha (km/h) Dirección de racha Precipitación (mm) Presión (hPa) Tendencia (hPa) Humedad (%)
2019-02-17 23:00:00 8.6 8 Noroeste 13 Noroeste 0 -- -- 74
2019-02-17 22:00:00 9.7 11 Oeste 18 Oeste 0 -- -- 65
2019-02-17 21:00:00 9.6 14 Oeste 17 Sudoeste 0 -- -- 69
2019-02-17 20:00:00 11.1 10 Oeste 17 Oeste 0 -- -- 62
2019-02-17 19:00:00 12.8 13 Sudeste 21 Sudeste 0 -- -- 43
2019-02-17 18:00:00 14.9 10 Este 19 Este 0 -- -- 40
2019-02-17 17:00:00 17.1 8 Sur 21 Sudeste 0 -- -- 38
2019-02-17 16:00:00 18.1 5 Noroeste 18 Noroeste 0 -- -- 35
2019-02-17 15:00:00 19.2 8 Noroeste 28 Sudoeste 0 -- -- 33
2019-02-17 14:00:00 20.8 6 Sur 24 Sudoeste 0 -- -- 28
2019-02-17 13:00:00 20 10 Sur 22 Oeste 0 -- -- 31
2019-02-17 12:00:00 17.2 5 Sudeste 13 Sudeste 0 -- -- 37
2019-02-17 11:00:00 16.1 6 Sur 15 Sudeste 0 -- -- 38
2019-02-17 10:00:00 12.9 6 Sudeste 15 Este 0 -- -- 45
2019-02-17 09:00:00 10.2 6 Sur 25 Oeste 0 -- -- 47
2019-02-17 08:00:00 9.3 10 Sudeste 13 Sudeste 0 -- -- 52
2019-02-17 07:00:00 10.4 4 Sur 14 Sudoeste 0 -- -- 47
2019-02-17 06:00:00 10.9 8 Oeste 15 Oeste 0 -- -- 46
2019-02-17 05:00:00 10.7 4 Oeste 14 Sudoeste 0 -- -- 45
2019-02-17 04:00:00 11.4 8 Sur 25 Este 0 -- -- 43
2019-02-17 03:00:00 13.2 15 Sudeste 31 Sudeste 0 -- -- 38
2019-02-17 02:00:00 12.6 5 Sudoeste 17 Sudeste 0 -- -- 39
2019-02-17 01:00:00 13.4 4 Norte 10 Nordeste 0 -- -- 36
2019-02-17 00:00:00 12.9 8 Nordeste 21 Sur 0 -- -- 37
2019-02-16 23:00:00 13.9 12 Sudeste 37 Sudoeste 0 -- -- 35
2019-02-16 22:00:00 14 9 Sur 29 Sudoeste 0 -- -- 33
2019-02-16 21:00:00 13.5 3 Sur 11 Sudeste 0 -- -- 45
2019-02-16 20:00:00 14.7 3 Sudoeste 26 Sudoeste 0 -- -- 41
2019-02-16 19:00:00 16.1 12 Sur 26 Sudoeste 0 -- -- 40
2019-02-16 18:00:00 19.9 2 Sudeste 8 Oeste 0 -- -- 29
2019-02-16 17:00:00 22.2 4 Sudoeste 13 Oeste 0 -- -- 28
2019-02-16 16:00:00 22.8 3 Oeste 13 Oeste 0 -- -- 27
2019-02-16 15:00:00 22 5 Sudoeste 12 Sur 0 -- -- 26
2019-02-16 14:00:00 21.4 4 Sur 10 Sur 0 -- -- 30
2019-02-16 13:00:00 19.7 4 Sur 10 Sur 0 -- -- 33
2019-02-16 12:00:00 17.7 3 Sudoeste 7 Sudoeste 0 -- -- 39
2019-02-16 11:00:00 13.8 4 Sudoeste 6 Sudoeste 0 -- -- 43
2019-02-16 10:00:00 10 3 Sudoeste 12 Sudeste 0 -- -- 50
2019-02-16 09:00:00 7.9 4 Este 15 Sudeste 0 -- -- 56
2019-02-16 08:00:00 7.6 6 Este 18 Sudeste 0 -- -- 58
2019-02-16 07:00:00 7.3 12 Sudeste 16 Sudeste 0 -- -- 61
2019-02-16 06:00:00 7.4 7 Sudeste 13 Sudeste 0 -- -- 61
2019-02-16 05:00:00 8.2 0 Calma 10 Sur 0 -- -- 59
2019-02-16 04:00:00 8.5 5 Sudeste 10 Sudeste 0 -- -- 60
2019-02-16 03:00:00 9.1 3 Sudoeste 6 Sudoeste 0 -- -- 59
2019-02-16 02:00:00 9.4 4 Este 5 Sudeste 0 -- -- 58
2019-02-16 01:00:00 9.6 0 Calma 6 Nordeste 0 -- -- 57
2019-02-16 00:00:00 9.7 4 Nordeste 5 Este 0 -- -- 59
2019-02-15 23:00:00 10.3 2 Sudeste 6 Sudeste 0 -- -- 57
2019-02-15 22:00:00 10.8 4 Este 15 Sudeste 0 -- -- 57
2019-02-15 21:00:00 11.8 5 Este 9 Este 0 -- -- 53
2019-02-15 20:00:00 13.5 3 Sudoeste 16 Oeste 0 -- -- 44
2019-02-15 19:00:00 14.3 11 Oeste 15 Oeste 0 -- -- 44
2019-02-15 18:00:00 16.7 13 Oeste 21 Oeste 0 -- -- 40
2019-02-15 17:00:00 20.1 14 Oeste 21 Sudoeste 0 -- -- 35
2019-02-15 16:00:00 22.4 8 Sudoeste 15 Oeste 0 -- -- 31
2019-02-15 15:00:00 21.2 4 Sudeste 12 Sudoeste 0 -- -- 33
2019-02-15 14:00:00 21.3 6 Oeste 11 Sur 0 -- -- 32
2019-02-15 13:00:00 20.6 4 Sudoeste 6 Sudoeste 0 -- -- 30
2019-02-15 12:00:00 18.2 3 Sudoeste 6 Oeste 0 -- -- 33
2019-02-15 11:00:00 15.2 4 Sudoeste 7 Sudoeste 0 -- -- 39
2019-02-15 10:00:00 11.7 3 Sudoeste 6 Sudoeste 0 -- -- 43
2019-02-15 09:00:00 10.3 0 Calma 8 Este 0 -- -- 45
2019-02-15 08:00:00 10.3 3 Nordeste 12 Nordeste 0 -- -- 44
2019-02-15 07:00:00 11 6 Este 18 Sur 0 -- -- 42
2019-02-15 06:00:00 11 8 Sudeste 21 Sudeste 0 -- -- 42
2019-02-15 05:00:00 10.9 2 Sudeste 13 Sudeste 0 -- -- 40
2019-02-15 04:00:00 11.4 5 Este 10 Nordeste 0 -- -- 39
2019-02-15 03:00:00 12.2 3 Nordeste 7 Sudoeste 0 -- -- 36
2019-02-15 02:00:00 11.3 3 Sudoeste 8 Este 0 -- -- 43
2019-02-15 01:00:00 11.2 4 Nordeste 10 Nordeste 0 -- -- 45
2019-02-15 00:00:00 10.6 4 Sur 11 Sudeste 0 -- -- 53
2019-02-14 23:00:00 10.4 5 Sudeste 12 Este 0 -- -- 52
2019-02-14 22:00:00 10.9 6 Este 8 Este 0 -- -- 58
2019-02-14 21:00:00 11.5 3 Este 10 Sudeste 0 -- -- 58
2019-02-14 20:00:00 12.4 9 Sudeste 11 Sudeste 0 -- -- 54
2019-02-14 19:00:00 14.3 2 Sudeste 15 Sudeste 0 -- -- 47
2019-02-14 18:00:00 16.6 12 Sudeste 17 Sudeste 0 -- -- 42
2019-02-14 17:00:00 18.3 14 Sudeste 17 Sudeste 0 -- -- 41
2019-02-14 16:00:00 19.7 8 Sudeste 11 Sudeste 0 -- -- 33
2019-02-14 15:00:00 19.7 8 Sur 11 Sudeste 0 -- -- 34
2019-02-14 14:00:00 20 4 Sudeste 14 Sudeste 0 -- -- 35
2019-02-14 13:00:00 18.5 3 Sudeste 8 Sudoeste 0 -- -- 37
2019-02-14 12:00:00 16.1 3 Oeste 10 Oeste 0 -- -- 37
2019-02-14 11:00:00 12.6 5 Sudoeste 8 Sudoeste 0 -- -- 43
2019-02-14 10:00:00 9.2 0 Calma 5 Oeste 0 -- -- 52
2019-02-14 09:00:00 7.4 0 Calma 6 Este 0 -- -- 58
2019-02-14 08:00:00 7.4 0 Calma 4 Sudeste 0 -- -- 58
2019-02-14 07:00:00 7.3 0 Calma 5 Oeste 0 -- -- 61
2019-02-14 06:00:00 7.1 0 Calma 5 Oeste 0 -- -- 65
2019-02-14 05:00:00 6.9 2 Oeste 8 Sudoeste 0 -- -- 69
2019-02-14 04:00:00 6.3 0 Calma 6 Este 0 -- -- 69
2019-02-14 03:00:00 6.3 3 Sur 7 Sudeste 0 -- -- 73
2019-02-14 02:00:00 7.1 4 Sudeste 6 Sudeste 0 -- -- 69
2019-02-14 01:00:00 7.2 3 Sudoeste 7 Este 0 -- -- 74
2019-02-14 00:00:00 7.5 4 Este 6 Nordeste 0 -- -- 73
2019-02-13 23:00:00 7.9 3 Nordeste 5 Nordeste 0 -- -- 75
2019-02-13 22:00:00 8.1 2 Sudeste 10 Este 0 -- -- 75
2019-02-13 21:00:00 8.9 7 Sudeste 9 Sudeste 0 -- -- 73
2019-02-13 20:00:00 10.4 3 Sur 8 Sudeste 0 -- -- 66
2019-02-13 19:00:00 11.9 8 Sudeste 9 Sudeste 0 -- -- 61
2019-02-13 18:00:00 14.9 8 Oeste 15 Oeste 0 -- -- 53
2019-02-13 17:00:00 17.2 10 Oeste 19 Noroeste 0 -- -- 47
2019-02-13 16:00:00 17.1 13 Noroeste 19 Oeste 0 -- -- 45
2019-02-13 15:00:00 16.2 10 Noroeste 16 Noroeste 0 -- -- 44
2019-02-13 14:00:00 16.1 3 Norte 12 Oeste 0 -- -- 43
2019-02-13 13:00:00 16.5 6 Oeste 11 Sudoeste 0 -- -- 38
2019-02-13 12:00:00 14.5 3 Sudoeste 6 Sudoeste 0 -- -- 39
2019-02-13 11:00:00 10.4 0 Calma 3 Sudoeste 0 -- -- 39
2019-02-13 10:00:00 8.1 0 Calma 3 Oeste 0 -- -- 47
2019-02-13 09:00:00 6.8 0 Calma 4 Oeste 0 -- -- 48
2019-02-13 08:00:00 6.7 3 Oeste 6 Oeste 0 -- -- 50
2019-02-13 07:00:00 6 2 Oeste 5 Sudoeste 0 -- -- 56
2019-02-13 06:00:00 5.7 0 Calma 5 Nordeste 0 -- -- 57
2019-02-13 05:00:00 5.2 0 Calma 5 Este 0 -- -- 68
2019-02-13 04:00:00 5 0 Calma 6 Este 0 -- -- 68
2019-02-13 03:00:00 4.7 4 Nordeste 6 Este 0 -- -- 81
2019-02-13 02:00:00 4.7 0 Calma 6 Sudeste 0 -- -- 86
2019-02-13 01:00:00 5.2 0 Calma 2 Nordeste 0 -- -- 84
2019-02-13 00:00:00 5.2 0 Calma 4 Sudeste 0 -- -- 86
2019-02-12 23:00:00 5.5 0 Calma 8 Este 0 -- -- 84
2019-02-12 22:00:00 5.3 5 Este 10 Sudeste 0 -- -- 87
2019-02-12 21:00:00 6.2 6 Sudeste 13 Sudeste 0 -- -- 88
2019-02-12 20:00:00 7.3 10 Sudeste 14 Sudeste 0 -- -- 83
2019-02-12 19:00:00 8.8 9 Sudeste 15 Sudeste 0 -- -- 76
2019-02-12 18:00:00 11.3 12 Sudeste 15 Sudeste 0 -- -- 64
2019-02-12 17:00:00 13.8 6 Sudeste 10 Sudeste 0 -- -- 50
2019-02-12 16:00:00 14.1 7 Sudeste 13 Sudeste 0 -- -- 45
2019-02-12 15:00:00 13.5 9 Sudeste 14 Sudeste 0 -- -- 46
2019-02-12 14:00:00 12.8 8 Sudeste 12 Sudeste 0 -- -- 51
2019-02-12 13:00:00 12.3 7 Sudeste 12 Sudeste 0 -- -- 54
2019-02-12 12:00:00 10.4 9 Sudeste 14 Sudeste 0 -- -- 59
2019-02-12 11:00:00 6.9 3 Sudeste 13 Sudeste 0 -- -- 70
2019-02-12 10:00:00 3.5 5 Sudeste 8 Sudeste 0 -- -- 85
2019-02-12 09:00:00 2.2 0 Calma 8 Este 0 -- -- 87
2019-02-12 08:00:00 2.7 3 Sudeste 6 Sudeste 0 -- -- 87
2019-02-12 07:00:00 3 2 Sudoeste 4 Oeste 0 -- -- 89
2019-02-12 06:00:00 2.7 0 Calma 6 Oeste 0 -- -- 93
2019-02-12 05:00:00 2.4 3 Oeste 11 Sudeste 0 -- -- 94
2019-02-12 04:00:00 2.9 12 Sudeste 16 Sudeste 0 -- -- 94
2019-02-12 03:00:00 3 7 Sudeste 22 Sudeste 0 -- -- 94
2019-02-12 02:00:00 3.2 6 Este 13 Sur 0 -- -- 93
2019-02-12 01:00:00 3.3 7 Sudeste 12 Sudeste 0 -- -- 94
2019-02-12 00:00:00 4.1 8 Sudeste 14 Sudeste 0 -- -- 92
2019-02-11 23:00:00 4.2 10 Sudeste 14 Sudeste 0 -- -- 92
2019-02-11 22:00:00 4.7 10 Sudeste 13 Sudeste 0 -- -- 89
2019-02-11 21:00:00 5.2 6 Sudeste 10 Este 0 -- -- 86
2019-02-11 20:00:00 6 6 Sudeste 18 Sudeste 0 -- -- 81
2019-02-11 19:00:00 6.8 6 Sudeste 21 Este 0 -- -- 80
2019-02-11 18:00:00 9.2 12 Sudeste 25 Este 0 -- -- 71
2019-02-11 17:00:00 11.6 8 Oeste 13 Oeste 0 -- -- 58
2019-02-11 16:00:00 11 6 Noroeste 20 Noroeste 0 -- -- 58
2019-02-11 15:00:00 11.5 14 Oeste 19 Sudoeste 0 -- -- 61
2019-02-11 14:00:00 9.8 10 Noroeste 16 Noroeste 0 -- -- 66
2019-02-11 13:00:00 8.4 7 Norte 15 Norte 0 -- -- 74
2019-02-11 12:00:00 7.8 4 Noroeste 8 Norte 0 -- -- 79
2019-02-11 11:00:00 6.9 3 Sudeste 10 Sudeste 0 -- -- 78
2019-02-11 10:00:00 5.5 6 Este 9 Noroeste 0 -- -- 87
2019-02-11 09:00:00 4.2 6 Oeste 15 Noroeste 0 -- -- 87
2019-02-11 08:00:00 3.9 10 Noroeste 16 Noroeste 0 -- -- 89
2019-02-11 07:00:00 4.2 11 Noroeste 16 Norte 0 -- -- 87
2019-02-11 06:00:00 4.9 5 Noroeste 14 Noroeste 0 -- -- 82
2019-02-11 05:00:00 4.8 9 Noroeste 16 Noroeste 0 -- -- 84
2019-02-11 04:00:00 4.6 5 Noroeste 16 Oeste 0 -- -- 85
2019-02-11 03:00:00 5 13 Oeste 21 Oeste 0 -- -- 84
2019-02-11 02:00:00 5.4 14 Noroeste 21 Noroeste 0 -- -- 82
2019-02-11 01:00:00 5.4 13 Noroeste 18 Noroeste 0 -- -- 87
2019-02-11 00:00:00 5.4 12 Noroeste 21 Noroeste 0 -- -- 90
2019-02-10 23:00:00 5.4 7 Noroeste 15 Noroeste 0 -- -- 94
2019-02-10 22:00:00 5.4 5 Noroeste 12 Oeste 0 -- -- 98
2019-02-10 21:00:00 5.3 8 Noroeste 16 Noroeste 0.4 -- -- 99
2019-02-10 20:00:00 5.6 11 Noroeste 32 Oeste 0.2 -- -- 94
2019-02-10 19:00:00 5.7 12 Noroeste 27 Oeste 0 -- -- 96
2019-02-10 18:00:00 5.6 20 Oeste 41 Oeste 0.8 -- -- 96
2019-02-10 17:00:00 6.1 18 Oeste 32 Oeste 0.6 -- -- 98
2019-02-10 16:00:00 6.2 24 Oeste 34 Noroeste 0.6 -- -- 99
2019-02-10 15:00:00 7.1 14 Noroeste 36 Noroeste 0.4 -- -- 100
2019-02-10 14:00:00 7.2 19 Noroeste 38 Noroeste 0.4 -- -- 100
2019-02-10 13:00:00 7.6 20 Norte 31 Noroeste 0.4 -- -- 100
2019-02-10 12:00:00 7.8 17 Noroeste 42 Oeste 0.4 -- -- 99
2019-02-10 11:00:00 7.4 25 Noroeste 50 Noroeste 1 -- -- 100
2019-02-10 10:00:00 7.6 30 Oeste 64 Oeste 1.6 -- -- 97
2019-02-10 09:00:00 9.6 19 Noroeste 60 Sudoeste 1 -- -- 95
2019-02-10 08:00:00 17.4 33 Oeste 85 Oeste 0 -- -- 44
2019-02-10 07:00:00 16.3 17 Noroeste 66 Sudoeste 0 -- -- 46
2019-02-10 06:00:00 14.3 39 Sudoeste 85 Oeste 0 -- -- 51
2019-02-10 05:00:00 14.4 50 Sudoeste 90 Sudoeste 0 -- -- 47
2019-02-10 04:00:00 14.6 49 Sudoeste 86 Sudoeste 0 -- -- 45
2019-02-10 03:00:00 13.9 44 Sudoeste 90 Sudoeste 0 -- -- 45
2019-02-10 02:00:00 13.9 48 Sudoeste 76 Sudoeste 0 -- -- 46
2019-02-10 01:00:00 13.5 19 Sudoeste 40 Sudoeste 0 -- -- 46
2019-02-10 00:00:00 12.7 11 Oeste 36 Sudoeste 0 -- -- 49
2019-02-09 23:00:00 11.6 4 Nordeste 34 Sudoeste 0 -- -- 54
2019-02-09 22:00:00 11.6 6 Oeste 21 Sudoeste 0 -- -- 54
2019-02-09 21:00:00 11.2 13 Nordeste 19 Este 0 -- -- 59
2019-02-09 20:00:00 12.1 8 Sudeste 21 Sudoeste 0 -- -- 56
2019-02-09 19:00:00 13.1 16 Sudoeste 34 Sudoeste 0 -- -- 50
2019-02-09 18:00:00 13.4 10 Sudoeste 40 Sudoeste 0 -- -- 48
2019-02-09 17:00:00 14.5 17 Sudoeste 44 Sudoeste 0 -- -- 45
2019-02-09 16:00:00 14.8 13 Sur 38 Sur 0 -- -- 46
2019-02-09 15:00:00 15.6 10 Sur 18 Sur 0 -- -- 53
2019-02-09 14:00:00 14.5 8 Este 26 Sudeste 0 -- -- 59
2019-02-09 13:00:00 12.8 12 Este 31 Sudeste 0 -- -- 58
2019-02-09 12:00:00 12.9 14 Sudeste 26 Sudeste 0 -- -- 61
2019-02-09 11:00:00 11 11 Sudeste 22 Sudeste 0 -- -- 67
2019-02-09 10:00:00 8.2 3 Sur 11 Sudeste 0 -- -- 81
2019-02-09 09:00:00 6.3 3 Sur 13 Este 0 -- -- 89
2019-02-09 08:00:00 6.3 4 Este 13 Sudoeste 0 -- -- 88
2019-02-09 07:00:00 7 8 Sudeste 18 Sudeste 0 -- -- 83
2019-02-09 06:00:00 8.4 2 Sudeste 10 Sudoeste 0 -- -- 75
2019-02-09 05:00:00 9 5 Este 12 Sudoeste 0 -- -- 73
2019-02-09 04:00:00 9 2 Sudeste 13 Sudeste 0 -- -- 72
2019-02-09 03:00:00 8.4 2 Este 12 Sudoeste 0 -- -- 76
2019-02-09 02:00:00 8.6 4 Sudeste 8 Sudeste 0 -- -- 73
2019-02-09 01:00:00 8.6 3 Este 6 Este 0 -- -- 75
2019-02-09 00:00:00 8.8 3 Oeste 6 Sudoeste 0 -- -- 72
2019-02-08 23:00:00 8.7 2 Oeste 10 Sudoeste 0 -- -- 75
2019-02-08 22:00:00 8.2 7 Sudoeste 15 Sudeste 0 -- -- 81
2019-02-08 21:00:00 8.7 9 Sudeste 12 Sudeste 0 -- -- 81
2019-02-08 20:00:00 9.6 4 Nordeste 7 Este 0 -- -- 78
2019-02-08 19:00:00 10.1 4 Oeste 9 Sudoeste 0 -- -- 75
2019-02-08 18:00:00 10.6 4 Sur 17 Sur 0 -- -- 72
2019-02-08 17:00:00 11.6 18 Este 23 Este 0 -- -- 72
2019-02-08 16:00:00 13.8 4 Sur 14 Sudoeste 0 -- -- 64
2019-02-08 15:00:00 12.2 3 Este 13 Sudeste 0 -- -- 64
2019-02-08 14:00:00 11.9 9 Sudeste 18 Sudeste 0 -- -- 71
2019-02-08 13:00:00 10.8 3 Sudoeste 8 Oeste 0 -- -- 76
2019-02-08 12:00:00 9.9 4 Sudoeste 8 Oeste 0 -- -- 80
2019-02-08 11:00:00 7.2 6 Oeste 10 Oeste 0 -- -- 92
2019-02-08 10:00:00 4.1 5 Oeste 7 Sudoeste 0 -- -- 100
2019-02-08 09:00:00 3.3 0 Calma 5 Este 0 -- -- 100
2019-02-08 08:00:00 3.6 0 Calma 4 Sudeste 0 -- -- 100
2019-02-08 07:00:00 3.6 0 Calma 4 Sudoeste 0 -- -- 100
2019-02-08 06:00:00 3.7 0 Calma 3 Sudoeste 0 -- -- 100
2019-02-08 05:00:00 3.8 0 Calma 5 Sudeste 0 -- -- 100
2019-02-08 04:00:00 4.2 0 Calma 9 Sudoeste 0 -- -- 100
2019-02-08 03:00:00 3.9 0 Calma 8 Este 0 -- -- 100
2019-02-08 02:00:00 4.7 0 Calma 6 Sudeste 0 -- -- 99
2019-02-08 01:00:00 4.5 3 Este 9 Este 0 -- -- 98
2019-02-08 00:00:00 5.2 5 Sudeste 9 Sudeste 0 -- -- 96
2019-02-07 23:00:00 6 0 Calma 4 Este 0 -- -- 95
2019-02-07 22:00:00 6.2 3 Sudeste 13 Este 0 -- -- 94
2019-02-07 21:00:00 6.8 10 Sudeste 14 Sudeste 0 -- -- 91
2019-02-07 20:00:00 7.4 3 Sudeste 20 Sudeste 0 -- -- 88
2019-02-07 19:00:00 7.7 7 Este 18 Este 0 -- -- 88
2019-02-07 18:00:00 8.8 4 Sudeste 17 Este 0 -- -- 83
2019-02-07 17:00:00 9.8 4 Oeste 12 Este 0 -- -- 82
2019-02-07 16:00:00 10.2 3 Sudeste 10 Norte 0 -- -- 80
2019-02-07 15:00:00 9.7 5 Noroeste 16 Norte 0 -- -- 82
2019-02-07 14:00:00 9.1 7 Noroeste 26 Noroeste 0 -- -- 86
2019-02-07 13:00:00 8.3 14 Oeste 30 Noroeste 0 -- -- 93
2019-02-07 12:00:00 7.5 15 Noroeste 26 Noroeste 0 -- -- 98
2019-02-07 11:00:00 6.7 14 Noroeste 28 Oeste 0 -- -- 100
2019-02-07 10:00:00 6.7 17 Oeste 26 Noroeste 0.6 -- -- 99
2019-02-07 09:00:00 7.8 15 Noroeste 21 Noroeste 0 -- -- 94
2019-02-07 08:00:00 7.9 4 Oeste 10 Oeste 0 -- -- 93
2019-02-07 07:00:00 7.7 0 Calma 4 Sudoeste 0 -- -- 93
2019-02-07 06:00:00 7.7 3 Este 5 Sudoeste 0 -- -- 92
2019-02-07 05:00:00 8.1 3 Oeste 8 Sudoeste 0 -- -- 89
2019-02-07 04:00:00 8.7 4 Oeste 16 Noroeste 0 -- -- 87
2019-02-07 03:00:00 7.9 6 Oeste 12 Noroeste 0 -- -- 100
2019-02-07 02:00:00 7.6 3 Oeste 5 Sudoeste 0 -- -- 100
2019-02-07 01:00:00 7.3 2 Oeste 8 Sudeste 0 -- -- 100
2019-02-07 00:00:00 7.5 6 Sudeste 10 Sudeste 0 -- -- 100
2019-02-06 23:00:00 7.3 3 Sudoeste 7 Noroeste 0 -- -- 100
2019-02-06 22:00:00 7.7 3 Oeste 12 Oeste 0 -- -- 99
2019-02-06 21:00:00 8 8 Sudoeste 16 Noroeste 0 -- -- 98
2019-02-06 20:00:00 9.6 4 Sudoeste 14 Sudeste 0 -- -- 91
2019-02-06 19:00:00 10.9 8 Sur 13 Sur 0 -- -- 84
2019-02-06 18:00:00 12.6 6 Sudeste 11 Sudeste 0 -- -- 72
2019-02-06 17:00:00 14.6 2 Sur 12 Norte 0 -- -- 68
2019-02-06 16:00:00 14.5 11 Norte 16 Oeste 0 -- -- 68
2019-02-06 15:00:00 15.4 8 Noroeste 14 Oeste 0 -- -- 65
2019-02-06 14:00:00 15.1 2 Sur 9 Sudoeste 0 -- -- 63
2019-02-06 13:00:00 13 4 Sudoeste 9 Sur 0 -- -- 68
2019-02-06 12:00:00 11.5 4 Sur 7 Sur 0 -- -- 79
2019-02-06 11:00:00 7.6 0 Calma 4 Sudeste 0 -- -- 88
2019-02-06 10:00:00 6.4 0 Calma 5 Sudoeste 0 -- -- 92
2019-02-06 09:00:00 4.7 3 Sudoeste 8 Sudoeste 0 -- -- 97
2019-02-06 08:00:00 4.4 9 Sudeste 13 Sudeste 0 -- -- 95
2019-02-06 07:00:00 4.6 0 Calma 4 Este 0 -- -- 97
2019-02-06 06:00:00 4.5 4 Este 5 Sudeste 0 -- -- 97
2019-02-06 05:00:00 4.7 0 Calma 3 Sudeste 0 -- -- 97
2019-02-06 04:00:00 4.7 0 Calma 9 Este 0 -- -- 98
2019-02-06 03:00:00 5.2 0 Calma 6 Sudoeste 0 -- -- 97
2019-02-06 02:00:00 5.2 3 Sudoeste 12 Sudeste 0 -- -- 96
2019-02-06 01:00:00 5.7 4 Sudoeste 7 Sudoeste 0 -- -- 96
2019-02-06 00:00:00 5.9 3 Sudeste 7 Sudeste 0 -- -- 95
2019-02-05 23:00:00 6.6 0 Calma 10 Sudeste 0 -- -- 92
2019-02-05 22:00:00 6.8 9 Sudeste 11 Sudeste 0 -- -- 92
2019-02-05 21:00:00 7.6 3 Este 9 Sudeste 0 -- -- 89
2019-02-05 20:00:00 8.4 3 Sur 13 Sudeste 0 -- -- 86
2019-02-05 19:00:00 9.3 10 Sudeste 20 Sudeste 0 -- -- 82
2019-02-05 18:00:00 10.9 11 Sudeste 22 Sudeste 0 -- -- 76
2019-02-05 17:00:00 12.1 13 Sudeste 22 Sudeste 0 -- -- 74
2019-02-05 16:00:00 15.1 12 Sudeste 21 Sudeste 0 -- -- 64
2019-02-05 15:00:00 15.5 8 Sur 13 Sudeste 0 -- -- 61
2019-02-05 14:00:00 15.3 6 Sudeste 11 Este 0 -- -- 62
2019-02-05 13:00:00 14.5 7 Sur 10 Sudeste 0 -- -- 63
2019-02-05 12:00:00 12.3 3 Sudoeste 6 Sudeste 0 -- -- 76
2019-02-05 11:00:00 9.4 2 Sudoeste 5 Oeste 0 -- -- 87
2019-02-05 10:00:00 6.8 3 Sudeste 7 Sudeste 0 -- -- 95
2019-02-05 09:00:00 6.1 0 Calma 4 Este 0 -- -- 95
2019-02-05 08:00:00 6.4 0 Calma 4 Este 0 -- -- 96
2019-02-05 07:00:00 6.5 3 Este 7 Sudeste 0 -- -- 94
2019-02-05 06:00:00 7.3 4 Este 5 Este 0 -- -- 92
2019-02-05 05:00:00 7.5 0 Calma 6 Este 0 -- -- 93
2019-02-05 04:00:00 7.8 6 Sudeste 10 Sudeste 0 -- -- 91
2019-02-05 03:00:00 8.1 3 Sudeste 4 Sudeste 0 -- -- 92
2019-02-05 02:00:00 7.9 3 Sudeste 6 Este 0 -- -- 92
2019-02-05 01:00:00 8.2 0 Calma 11 Sudeste 0 -- -- 92
2019-02-05 00:00:00 8.3 5 Este 6 Este 0 -- -- 92
2019-02-04 23:00:00 8.6 3 Sudoeste 5 Sudoeste 0 -- -- 90
2019-02-04 22:00:00 8.6 3 Este 8 Este 0 -- -- 90
2019-02-04 21:00:00 9.1 4 Sudeste 8 Sur 0 -- -- 87
2019-02-04 20:00:00 9.5 3 Sudoeste 12 Este 0 -- -- 82
2019-02-04 19:00:00 9.8 9 Sudeste 13 Sudeste 0 -- -- 80
2019-02-04 18:00:00 11.1 4 Sur 8 Sudeste 0 -- -- 73
2019-02-04 17:00:00 12.5 3 Sudoeste 4 Sudoeste 0 -- -- 68
2019-02-04 16:00:00 13.4 0 Calma 6 Este 0 -- -- 64
2019-02-04 15:00:00 13.6 2 Sudoeste 9 Este 0 -- -- 60
2019-02-04 14:00:00 12.6 6 Sudeste 10 Sudeste 0 -- -- 56
2019-02-04 13:00:00 9.8 4 Noroeste 11 Oeste 0 -- -- 57
2019-02-04 12:00:00 8.5 5 Sudeste 10 Sudeste 0 -- -- 61
2019-02-04 11:00:00 5.9 3 Oeste 9 Sudoeste 0 -- -- 57
2019-02-04 10:00:00 4.1 5 Sudoeste 14 Sudoeste 0 -- -- 57
2019-02-04 09:00:00 1.9 5 Sudeste 10 Sudeste 0 -- -- 69
2019-02-04 08:00:00 2 5 Este 9 Este 0 -- -- 67
2019-02-04 07:00:00 2.3 0 Calma 6 Nordeste 0 -- -- 61
2019-02-04 06:00:00 1.8 3 Sudeste 8 Sudoeste 0 -- -- 63
2019-02-04 05:00:00 1.2 5 Sudoeste 8 Sudoeste 0 -- -- 71
2019-02-04 04:00:00 0.7 2 Este 11 Este 0 -- -- 75
2019-02-04 03:00:00 0.3 8 Este 13 Este 0 -- -- 82
2019-02-04 02:00:00 0.5 4 Sudoeste 14 Este 0 -- -- 80
2019-02-04 01:00:00 1.1 3 Noroeste 8 Este 0 -- -- 77
2019-02-04 00:00:00 1.3 0 Calma 12 Sudoeste 0 -- -- 77
2019-02-03 23:00:00 1.8 7 Sudeste 17 Sudeste 0 -- -- 75
2019-02-03 22:00:00 2.1 3 Sudeste 20 Sur 0 -- -- 74
2019-02-03 21:00:00 1.9 16 Sudeste 22 Sudeste 0 -- -- 81
2019-02-03 20:00:00 2.6 8 Sudeste 13 Sudeste 0 -- -- 77
2019-02-03 19:00:00 4.2 2 Este 8 Este 0.2 -- -- 66
2019-02-03 18:00:00 5.7 5 Nordeste 8 Este 0 -- -- 61
2019-02-03 17:00:00 9 3 Oeste 14 Oeste 0 -- -- 55
2019-02-03 16:00:00 9.1 6 Sudoeste 12 Oeste 0 -- -- 54
2019-02-03 15:00:00 9.2 9 Sudoeste 16 Oeste 0 -- -- 51
2019-02-03 14:00:00 8.7 9 Oeste 18 Oeste 0 -- -- 62
2019-02-03 13:00:00 6.8 0 Calma 7 Sudoeste 0 -- -- 74
2019-02-03 12:00:00 4.9 2 Noroeste 5 Sudoeste 0 -- -- 83
2019-02-03 11:00:00 2.8 3 Oeste 5 Noroeste 0 -- -- 94
2019-02-03 10:00:00 1.6 2 Oeste 4 Sudoeste 0 -- -- 98
2019-02-03 09:00:00 1 0 Calma 6 Oeste 0 -- -- 96
2019-02-03 08:00:00 1.2 3 Oeste 8 Sudoeste 0 -- -- 99
2019-02-03 07:00:00 0.8 5 Nordeste 30 Oeste 0.2 -- -- 98
2019-02-03 06:00:00 1.4 17 Oeste 23 Oeste 0.4 -- -- 96
2019-02-03 05:00:00 1.7 7 Noroeste 13 Norte 0 -- -- 93
2019-02-03 04:00:00 1.9 6 Noroeste 18 Noroeste 0 -- -- 92
2019-02-03 03:00:00 1.5 8 Noroeste 20 Noroeste 0.4 -- -- 96
2019-02-03 02:00:00 2 10 Oeste 16 Sudoeste 0.4 -- -- 92
2019-02-03 01:00:00 2 5 Noroeste 24 Norte 0 -- -- 93
2019-02-03 00:00:00 2.5 17 Oeste 31 Oeste 0 -- -- 89
2019-02-02 23:00:00 2.7 12 Noroeste 30 Oeste 0 -- -- 92
2019-02-02 22:00:00 3.3 20 Oeste -- -- -- -- -- 88
2019-02-02 21:00:00 -- -- -- -- -- -- -- -- --
2019-02-02 20:00:00 2.2 21 Noroeste 52 Oeste 1 -- -- 97
2019-02-02 19:00:00 3 37 Oeste 52 Oeste 0.2 -- -- 92
2019-02-02 18:00:00 2.9 35 Oeste 49 Oeste 1.2 -- -- 96
2019-02-02 17:00:00 2.1 23 Noroeste 41 Noroeste 1.2 -- -- 96
2019-02-02 16:00:00 3.5 15 Noroeste 32 Oeste 0.6 -- -- 90
2019-02-02 15:00:00 5.8 15 Oeste 46 Oeste 0 -- -- 80
2019-02-02 14:00:00 5.1 10 Noroeste 29 Oeste 0.6 -- -- 89
2019-02-02 13:00:00 2 5 Nordeste 20 Oeste 0.8 -- -- 99
2019-02-02 12:00:00 1.5 13 Oeste 36 Oeste 1 -- -- 94
2019-02-02 11:00:00 1.6 22 Noroeste 33 Oeste 0.4 -- -- 95
2019-02-02 10:00:00 1 17 Sudoeste 51 Noroeste 1.2 -- -- 97
2019-02-02 09:00:00 2 21 Oeste 54 Oeste 0.4 -- -- 96
2019-02-02 08:00:00 2.3 37 Oeste 52 Oeste 0.2 -- -- 94
2019-02-02 07:00:00 3.5 32 Oeste 60 Oeste 1.2 -- -- 83
2019-02-02 06:00:00 2.8 36 Oeste 55 Oeste 2 -- -- 91
2019-02-02 05:00:00 1.7 43 Oeste 63 Oeste 2.8 -- -- 99
2019-02-02 04:00:00 1.7 23 Noroeste 60 Oeste 4 -- -- 100
2019-02-02 03:00:00 2.2 42 Oeste 81 Oeste 3.4 -- -- 97
2019-02-02 02:00:00 3.1 32 Oeste 64 Oeste 0.8 -- -- 94
2019-02-02 01:00:00 3.5 49 Oeste 80 Oeste 1.6 -- -- 96
2019-02-02 00:00:00 3.1 54 Oeste 95 Noroeste 4.6 -- -- 99
2019-02-01 23:00:00 4.4 44 Noroeste 80 Noroeste 2.6 -- -- 95
2019-02-01 22:00:00 5.2 42 Noroeste 83 Oeste 0.4 -- -- 94
2019-02-01 21:00:00 4.1 51 Oeste 71 Oeste 1.4 -- -- 97
2019-02-01 20:00:00 3.7 19 Noroeste 43 Noroeste 0.6 -- -- 95
2019-02-01 19:00:00 3.7 26 Noroeste 48 Oeste 0.2 -- -- 89
2019-02-01 18:00:00 6.1 22 Noroeste 38 Noroeste 0 -- -- 69
2019-02-01 17:00:00 7.5 21 Noroeste 51 Oeste 0 -- -- 64
2019-02-01 16:00:00 8.4 25 Oeste 49 Oeste 0 -- -- 58
2019-02-01 15:00:00 5.9 9 Noroeste 18 Oeste 0 -- -- 82
2019-02-01 14:00:00 4.3 6 Nordeste 68 Oeste 0 -- -- 94
2019-02-01 13:00:00 5.8 36 Oeste 65 Oeste 0.2 -- -- 66
2019-02-01 12:00:00 5.8 5 Oeste 14 Oeste 0 -- -- 85
2019-02-01 11:00:00 4.9 9 Sudoeste 37 Oeste 0 -- -- 89
2019-02-01 10:00:00 5.4 39 Oeste 75 Oeste 0 -- -- 77
2019-02-01 09:00:00 6.1 4 Este 33 Oeste 0 -- -- 62
2019-02-01 08:00:00 5.2 12 Oeste 29 Noroeste 0.2 -- -- 83
2019-02-01 07:00:00 6.1 19 Noroeste 44 Oeste 0 -- -- 89
2019-02-01 06:00:00 6.7 22 Sudoeste 40 Sur 0 -- -- 77
2019-02-01 05:00:00 6 9 Este 27 Este 0 -- -- 100
2019-02-01 04:00:00 6.5 18 Este 33 Este 0 -- -- 100
2019-02-01 03:00:00 6.8 5 Sudoeste 15 Este -- -- -- 100
2019-02-01 02:00:00 6.8 10 Este 15 Sudeste 0 -- -- 100
2019-02-01 01:00:00 7.3 4 Este 15 Sudeste 0 -- -- 100
2019-02-01 00:00:00 7.9 9 Sudeste 15 Sur 0 -- -- 99
2019-01-31 23:00:00 8.4 5 Este 8 Este 0 -- -- 98
2019-01-31 22:00:00 8.8 3 Noroeste 11 Noroeste 0 -- -- 100
2019-01-31 21:00:00 8.8 2 Sudeste 10 Noroeste 0 -- -- 100
2019-01-31 20:00:00 8.8 6 Noroeste 17 Noroeste 0 -- -- 100
2019-01-31 19:00:00 8.9 9 Noroeste 22 Noroeste 4.6 -- -- 100
2019-01-31 18:00:00 9.4 9 Oeste 31 Noroeste 5.2 -- -- 100
2019-01-31 17:00:00 10.4 13 Norte 30 Noroeste 4.8 -- -- 96
2019-01-31 16:00:00 12.5 5 Sudeste 18 Este 0.2 -- -- 93
2019-01-31 15:00:00 13.3 10 Sudeste 18 Sudeste 0 -- -- 82
2019-01-31 14:00:00 14.1 11 Sur 17 Sur 0 -- -- 79
2019-01-31 13:00:00 13.9 8 Noroeste 29 Noroeste 0 -- -- 76
2019-01-31 12:00:00 13.8 17 Noroeste 28 Noroeste 0 -- -- 77
2019-01-31 11:00:00 13 7 Noroeste 18 Noroeste 0 -- -- 81
2019-01-31 10:00:00 11.4 5 Norte 20 Norte 0.2 -- -- 87
2019-01-31 09:00:00 10.3 5 Noroeste 17 Noroeste 0 -- -- 92
2019-01-31 08:00:00 9.8 7 Este 24 Noroeste 1.2 -- -- 94
2019-01-31 07:00:00 10.3 17 Norte 26 Oeste 0.4 -- -- 92
2019-01-31 06:00:00 10.1 17 Noroeste 24 Noroeste 1 -- -- 94
2019-01-31 05:00:00 9.8 5 Norte 15 Norte 0.8 -- -- 99
2019-01-31 04:00:00 9.1 4 Sudoeste 13 Oeste 1 -- -- 100
2019-01-31 03:00:00 8.5 7 Sudoeste 12 Sudoeste 1.4 -- -- 100
2019-01-31 02:00:00 7.7 7 Sur 17 Sudeste 1.6 -- -- 98
2019-01-31 01:00:00 8.2 11 Sudeste 21 Sudeste 2.8 -- -- 95
2019-01-31 00:00:00 8.6 8 Nordeste 26 Norte 0.6 -- -- 95
2019-01-30 23:00:00 8.5 11 Noroeste 35 Oeste 0.8 -- -- 90
2019-01-30 22:00:00 7 4 Este 17 Nordeste 0.6 -- -- 98
2019-01-30 21:00:00 6.2 7 Este 16 Nordeste 1 -- -- 98
2019-01-30 20:00:00 5.7 0 Calma 22 Sudeste 1 -- -- 98
2019-01-30 19:00:00 5.8 12 Sudeste 19 Sudeste 0.6 -- -- 96
2019-01-30 18:00:00 6.1 3 Este 24 Sudeste 0.8 -- -- 92
2019-01-30 17:00:00 7.3 11 Sudeste 19 Nordeste 0.4 -- -- 83
2019-01-30 16:00:00 9.3 7 Sudeste 19 Norte 0 -- -- 57
2019-01-30 15:00:00 10.3 8 Este 22 Noroeste 0 -- -- 50
2019-01-30 14:00:00 11.5 6 Oeste 19 Oeste 0 -- -- 49
2019-01-30 13:00:00 10.3 6 Sudeste 12 Noroeste 0 -- -- 58
2019-01-30 12:00:00 8.6 8 Norte 34 Oeste 0 -- -- 52
2019-01-30 11:00:00 8.1 15 Oeste 31 Oeste 0 -- -- 51
2019-01-30 10:00:00 5.9 15 Noroeste 28 Noroeste 0 -- -- 64
2019-01-30 09:00:00 4.9 13 Noroeste 26 Oeste 0 -- -- 70
2019-01-30 08:00:00 5.1 18 Noroeste 36 Oeste 0 -- -- 68
2019-01-30 07:00:00 5.4 26 Oeste 46 Oeste 0 -- -- 70
2019-01-30 06:00:00 4.8 19 Noroeste 33 Oeste 0 -- -- 74
2019-01-30 05:00:00 4.6 22 Noroeste 41 Oeste 0 -- -- 81
2019-01-30 04:00:00 4.5 21 Noroeste 38 Noroeste 0 -- -- 82
2019-01-30 03:00:00 4 18 Noroeste 35 Noroeste 0 -- -- 89
2019-01-30 02:00:00 3.7 16 Noroeste 42 Noroeste 0.2 -- -- 95
2019-01-30 01:00:00 3.6 16 Noroeste 35 Noroeste 0 -- -- 97
2019-01-30 00:00:00 3.4 23 Noroeste 50 Oeste 0.4 -- -- 98
2019-01-29 23:00:00 3.9 30 Noroeste 51 Oeste 0.2 -- -- 95
2019-01-29 22:00:00 4.2 33 Oeste 68 Oeste 0.8 -- -- 92
2019-01-29 21:00:00 5.3 32 Oeste 70 Oeste 0.2 -- -- 85
2019-01-29 20:00:00 5 46 Oeste 76 Oeste 0.6 -- -- 90
2019-01-29 19:00:00 4.9 32 Noroeste 77 Oeste 1.6 -- -- 97
2019-01-29 18:00:00 5.4 38 Oeste 86 Oeste 1.2 -- -- 96
2019-01-29 17:00:00 6.9 51 Oeste 93 Oeste 0 -- -- 84
2019-01-29 16:00:00 6.3 37 Oeste 86 Oeste 1.8 -- -- 96
2019-01-29 15:00:00 6.9 48 Oeste 95 Oeste 1.2 -- -- 94
2019-01-29 14:00:00 8.4 61 Oeste 100 Noroeste 1.4 -- -- 90
2019-01-29 13:00:00 8.9 22 Noroeste 46 Oeste 0.6 -- -- 89
2019-01-29 12:00:00 10.8 30 Oeste 65 Oeste 0.2 -- -- 70
2019-01-29 11:00:00 10.2 15 Noroeste 69 Oeste 0 -- -- 69
2019-01-29 10:00:00 9 14 Oeste 31 Sudoeste 0.2 -- -- 73
2019-01-29 09:00:00 8 16 Noroeste 23 Noroeste 0 -- -- 80
2019-01-29 08:00:00 7 7 Este 21 Sudeste 0 -- -- 87
2019-01-29 07:00:00 7.1 4 Norte 17 Norte 0 -- -- 84
2019-01-29 06:00:00 6.8 3 Nordeste 24 Norte 0 -- -- 80
2019-01-29 05:00:00 6.8 13 Noroeste 21 Noroeste 0 -- -- 78
2019-01-29 04:00:00 6.7 9 Noroeste 19 Norte 0 -- -- 78
2019-01-29 03:00:00 6.1 9 Noroeste 23 Norte 0 -- -- 84
2019-01-29 02:00:00 5.8 16 Noroeste 22 Noroeste 0 -- -- 88
2019-01-29 01:00:00 5.9 12 Noroeste 26 Noroeste 0 -- -- 90
2019-01-29 00:00:00 6 19 Noroeste 26 Noroeste 0 -- -- 90
2019-01-28 23:00:00 6.5 18 Noroeste 42 Oeste 0 -- -- 80
2019-01-28 22:00:00 6.7 24 Oeste 35 Oeste 0 -- -- 78
2019-01-28 21:00:00 6.9 31 Oeste 60 Oeste 0 -- -- 77
2019-01-28 20:00:00 7.2 39 Oeste 62 Oeste 0 -- -- 80
2019-01-28 19:00:00 6.9 35 Oeste 56 Oeste 0.2 -- -- 85
2019-01-28 18:00:00 6.7 43 Oeste 59 Oeste 0.4 -- -- 89
2019-01-28 17:00:00 7.1 36 Oeste 47 Oeste 0 -- -- 88
2019-01-28 16:00:00 6.9 32 Oeste 55 Oeste 0.6 -- -- 93
2019-01-28 15:00:00 7.9 29 Oeste 60 Oeste 0 -- -- 83
2019-01-28 14:00:00 7.1 46 Oeste 67 Oeste 0.8 -- -- 92
2019-01-28 13:00:00 6.8 28 Oeste 56 Noroeste 1.4 -- -- 98
2019-01-28 12:00:00 7.7 34 Oeste 67 Oeste 1 -- -- 92
2019-01-28 11:00:00 6.8 25 Noroeste 54 Norte 0.8 -- -- 100
2019-01-28 10:00:00 7.1 45 Oeste 72 Oeste 0.8 -- -- 98
2019-01-28 09:00:00 7.3 36 Noroeste 67 Oeste 1.2 -- -- 97
2019-01-28 08:00:00 8 28 Noroeste 89 Oeste 0 -- -- 89
2019-01-28 07:00:00 8.4 43 Oeste 69 Oeste 0.2 -- -- 84
2019-01-28 06:00:00 7.2 26 Oeste 67 Noroeste 0 -- -- 97
2019-01-28 05:00:00 6.9 23 Noroeste 53 Oeste 0 -- -- 99
2019-01-28 04:00:00 6.2 24 Noroeste 46 Noroeste 0.2 -- -- 100
2019-01-28 03:00:00 5.9 29 Noroeste 47 Noroeste 0.4 -- -- 98
2019-01-28 02:00:00 6.2 27 Noroeste 54 Oeste 0 -- -- 90
2019-01-28 01:00:00 5.5 20 Noroeste 33 Noroeste 0 -- -- 90
2019-01-28 00:00:00 5.1 19 Noroeste 43 Oeste 0.2 -- -- 89
2019-01-27 23:00:00 4.6 18 Noroeste 38 Noroeste 0.4 -- -- 94
2019-01-27 22:00:00 4.6 21 Noroeste 46 Oeste 0.6 -- -- 94
2019-01-27 21:00:00 4.3 15 Noroeste 46 Noroeste 0.4 -- -- 98
2019-01-27 20:00:00 5.1 26 Noroeste 50 Oeste 0.2 -- -- 89
2019-01-27 19:00:00 4.7 36 Noroeste 49 Noroeste 1 -- -- 97
2019-01-27 18:00:00 5.2 28 Oeste 58 Oeste 0 -- -- 90
2019-01-27 17:00:00 5.2 34 Oeste 67 Oeste 0.4 -- -- 90
2019-01-27 16:00:00 6.8 31 Oeste 53 Oeste 0 -- -- 81
2019-01-27 15:00:00 5.8 32 Oeste 52 Oeste 0.4 -- -- 94
2019-01-27 14:00:00 4.6 39 Oeste -- -- 2.2 -- -- 98
2019-01-27 13:00:00 6.1 32 Oeste 69 Oeste 0.8 -- -- 89
2019-01-27 12:00:00 5.8 28 Noroeste 59 Oeste 0.4 -- -- 96
2019-01-27 11:00:00 5 37 Oeste 60 Oeste 2.2 -- -- 98
2019-01-27 10:00:00 4.9 21 Noroeste 53 Oeste 0.6 -- -- 97
2019-01-27 09:00:00 5.3 42 Oeste 67 Oeste 0.6 -- -- 91
2019-01-27 08:00:00 5.1 32 Noroeste 58 Noroeste 0.4 -- -- 93
2019-01-27 07:00:00 6.3 44 Oeste 86 Oeste 0 -- -- 81
2019-01-27 06:00:00 5.7 40 Oeste 68 Oeste 0.2 -- -- 91
2019-01-27 05:00:00 6.3 37 Noroeste 71 Oeste 0.4 -- -- 89
2019-01-27 04:00:00 6.8 42 Oeste 79 Oeste 1 -- -- 94
2019-01-27 03:00:00 6.8 43 Oeste 62 Oeste 0.8 -- -- 100
2019-01-27 02:00:00 6.8 26 Noroeste 41 Noroeste 0.4 -- -- 98
2019-01-27 01:00:00 7 15 Noroeste 30 Noroeste 0 -- -- 97
2019-01-27 00:00:00 5.5 2 Noroeste 10 Noroeste 0 -- -- 100
2019-01-26 23:00:00 5.4 0 Calma 13 Sudeste 0 -- -- 99
2019-01-26 22:00:00 5.5 2 Sudoeste 15 Sur 0 -- -- 97
2019-01-26 21:00:00 6.8 9 Sur 13 Sur 0 -- -- 92
2019-01-26 20:00:00 7.8 2 Sudoeste 9 Sudoeste 0 -- -- 87
2019-01-26 19:00:00 7.7 6 Sudoeste 12 Noroeste 0 -- -- 91
2019-01-26 18:00:00 8.2 8 Noroeste 18 Noroeste 0 -- -- 90
2019-01-26 17:00:00 9.4 16 Noroeste 29 Noroeste 0 -- -- 86
2019-01-26 16:00:00 12.1 22 Oeste 30 Oeste 0 -- -- 75
2019-01-26 15:00:00 12.1 2 Norte 10 Sur 0 -- -- 70
2019-01-26 14:00:00 11.2 4 Sudeste 10 Oeste 0 -- -- 70
2019-01-26 13:00:00 9.9 2 Oeste 8 Sudoeste 0 -- -- 81
2019-01-26 12:00:00 8.1 0 Calma 7 Sudoeste 0 -- -- 89
2019-01-26 11:00:00 5.4 2 Sudoeste 8 Sudeste 0 -- -- 100
2019-01-26 10:00:00 3.5 3 Sur 8 Sudeste 0 -- -- 100
2019-01-26 09:00:00 3 0 Calma 6 Este 0 -- -- 100
2019-01-26 08:00:00 2.9 5 Este 6 Sudeste 0 -- -- 100
2019-01-26 07:00:00 3.4 2 Este 4 Sudeste 0 -- -- 100
2019-01-26 06:00:00 3.8 0 Calma 5 Sudoeste 0 -- -- 100
2019-01-26 05:00:00 3.8 4 Sudeste 9 Sudeste 0 -- -- 100
2019-01-26 04:00:00 4.7 0 Calma 4 Nordeste 0 -- -- 100
2019-01-26 03:00:00 5.5 0 Calma 5 Sudoeste 0 -- -- 100
2019-01-26 02:00:00 5.8 3 Sur 8 Sudeste 0 -- -- 98
2019-01-26 01:00:00 6 6 Este 8 Sudeste 0 -- -- 98
2019-01-26 00:00:00 6.4 0 Calma 5 Oeste 0 -- -- 97
2019-01-25 23:00:00 6.7 3 Oeste 5 Oeste 0 -- -- 96
2019-01-25 22:00:00 7 4 Oeste 8 Sudoeste 0 -- -- 96
2019-01-25 21:00:00 7.2 3 Sudoeste 6 Norte 0 -- -- 97
2019-01-25 20:00:00 7.4 4 Noroeste 18 Oeste 0 -- -- 97
2019-01-25 19:00:00 7.7 11 Oeste 20 Oeste 0 -- -- 93
2019-01-25 18:00:00 7.8 11 Oeste 17 Noroeste 0.2 -- -- 100
2019-01-25 17:00:00 8.2 13 Noroeste 24 Norte 0 -- -- 97
2019-01-25 16:00:00 9 16 Noroeste 32 Norte 0 -- -- 91
2019-01-25 15:00:00 10 17 Noroeste 28 Norte 0 -- -- 89
2019-01-25 14:00:00 9.3 15 Oeste 31 Noroeste 0 -- -- 93
2019-01-25 13:00:00 9.6 15 Noroeste 23 Noroeste 0 -- -- 94
2019-01-25 12:00:00 9.7 6 Noroeste 25 Oeste 0 -- -- 97
2019-01-25 11:00:00 7.6 18 Oeste 38 Oeste 0 -- -- 100
2019-01-25 10:00:00 7.6 24 Noroeste 33 Oeste 0.2 -- -- 100
2019-01-25 09:00:00 7.5 17 Noroeste 29 Noroeste 0 -- -- 100
2019-01-25 08:00:00 7.4 22 Oeste 32 Oeste 0.4 -- -- 100
2019-01-25 07:00:00 7.8 18 Noroeste 28 Noroeste 0 -- -- 100
2019-01-25 06:00:00 7.9 14 Noroeste 26 Noroeste 0 -- -- 100
2019-01-25 05:00:00 8 23 Oeste 36 Oeste 0 -- -- 100
2019-01-25 04:00:00 8 13 Noroeste 30 Oeste 0 -- -- 100
2019-01-25 03:00:00 8 13 Noroeste 27 Oeste 0.2 -- -- 100
2019-01-25 02:00:00 8 18 Noroeste 26 Noroeste 0 -- -- 100
2019-01-25 01:00:00 8 14 Noroeste 22 Noroeste 0 -- -- 100
2019-01-25 00:00:00 8 18 Oeste 37 Oeste 0.2 -- -- 100
2019-01-24 23:00:00 8.1 28 Oeste 37 Oeste 0.2 -- -- 100
2019-01-24 22:00:00 8.6 23 Oeste 36 Oeste 0.2 -- -- 100
2019-01-24 21:00:00 8.5 19 Noroeste 42 Oeste 0.4 -- -- 100
2019-01-24 20:00:00 8.5 32 Oeste 41 Oeste 0.4 -- -- 100
2019-01-24 19:00:00 9 22 Oeste 36 Oeste 0 -- -- 100
2019-01-24 18:00:00 9 27 Oeste 38 Oeste 0.4 -- -- 100
2019-01-24 17:00:00 9 32 Oeste 45 Oeste 0.8 -- -- 100
2019-01-24 16:00:00 9.1 30 Oeste 41 Oeste 1.2 -- -- 100
2019-01-24 15:00:00 9.1 19 Noroeste 48 Oeste 1.8 -- -- 100
2019-01-24 14:00:00 9 32 Oeste 44 Oeste 2.6 -- -- 100
2019-01-24 13:00:00 9.2 28 Oeste 50 Oeste 0.8 -- -- 100
2019-01-24 12:00:00 9.1 35 Oeste 50 Oeste 2.4 -- -- 100
2019-01-24 11:00:00 9.2 33 Oeste 48 Oeste 2.4 -- -- 100
2019-01-24 10:00:00 9.2 31 Oeste 46 Oeste 3.4 -- -- 100
2019-01-24 09:00:00 9.3 36 Oeste 54 Oeste 0.4 -- -- 100
2019-01-24 08:00:00 9.3 32 Oeste 53 Oeste 1 -- -- 100
2019-01-24 07:00:00 9.3 32 Oeste 51 Oeste 1.2 -- -- 100
2019-01-24 06:00:00 9.2 30 Oeste 52 Oeste 4 -- -- 100
2019-01-24 05:00:00 9.1 30 Oeste 47 Oeste 4.6 -- -- 100
2019-01-24 04:00:00 9 28 Oeste 54 Oeste 4 -- -- 100
2019-01-24 03:00:00 9 40 Oeste 60 Oeste 2.8 -- -- 100
2019-01-24 02:00:00 8.8 32 Oeste 51 Oeste 2.4 -- -- 100
2019-01-24 01:00:00 8.7 37 Oeste 61 Oeste 1 -- -- 100
2019-01-24 00:00:00 8.5 42 Oeste 62 Oeste 1.8 -- -- 100
2019-01-23 23:00:00 8.2 43 Oeste 60 Oeste 2 -- -- 100
2019-01-23 22:00:00 7.9 21 Noroeste 50 Oeste 2.2 -- -- 100
2019-01-23 21:00:00 8 30 Oeste 49 Oeste 2.6 -- -- 100
2019-01-23 20:00:00 7.8 30 Oeste 49 Oeste 1 -- -- 99
2019-01-23 19:00:00 8.2 32 Oeste 59 Oeste 0.4 -- -- 99
2019-01-23 18:00:00 8.2 38 Oeste 66 Oeste 1.4 -- -- 100
2019-01-23 17:00:00 8.2 39 Oeste 70 Oeste 0.6 -- -- 100
2019-01-23 16:00:00 8.2 41 Oeste 60 Oeste 1.2 -- -- 100
2019-01-23 15:00:00 8.4 45 Oeste 64 Oeste 0.4 -- -- 98
2019-01-23 14:00:00 8.3 40 Oeste 64 Oeste 0.6 -- -- 99
2019-01-23 13:00:00 8.2 46 Oeste 67 Oeste 0.2 -- -- 97
2019-01-23 12:00:00 8.1 45 Oeste 74 Oeste 0.6 -- -- 98
2019-01-23 11:00:00 8.5 42 Oeste 67 Oeste 0.8 -- -- 97
2019-01-23 10:00:00 8.6 41 Oeste 86 Noroeste 0 -- -- 94
2019-01-23 09:00:00 8.6 50 Oeste 70 Oeste 0.6 -- -- 97
2019-01-23 08:00:00 8.4 37 Oeste 70 Oeste 2.2 -- -- 100
2019-01-23 07:00:00 8.6 52 Oeste 87 Oeste 3.6 -- -- 100
2019-01-23 06:00:00 8.1 31 Noroeste 76 Oeste 3.6 -- -- 100
2019-01-23 05:00:00 7.1 38 Oeste 57 Oeste 2.8 -- -- 100
2019-01-23 04:00:00 6.5 32 Noroeste 45 Noroeste 2.6 -- -- 100
2019-01-23 03:00:00 6.1 23 Noroeste 48 Oeste 1.8 -- -- 99
2019-01-23 02:00:00 6.1 31 Oeste 48 Oeste 2.2 -- -- 96
2019-01-23 01:00:00 6.1 32 Oeste 53 Oeste 5.2 -- -- 99
2019-01-23 00:00:00 5.7 28 Oeste 53 Oeste 4.8 -- -- 100
2019-01-22 23:00:00 5 22 Oeste 42 Oeste 5 -- -- 99
2019-01-22 22:00:00 4.3 13 Noroeste 33 Oeste 3.4 -- -- 100
2019-01-22 21:00:00 4 18 Oeste 48 Oeste 3.8 -- -- 97
2019-01-22 20:00:00 4.1 25 Oeste 59 Oeste 3.2 -- -- 97
2019-01-22 19:00:00 3.5 18 Noroeste 40 Noroeste 2 -- -- 99
2019-01-22 18:00:00 3.6 21 Noroeste 35 Noroeste 1.6 -- -- 98
2019-01-22 17:00:00 4 21 Noroeste 48 Oeste 2 -- -- 97
2019-01-22 16:00:00 4.1 29 Oeste 59 Oeste 2 -- -- 95
2019-01-22 15:00:00 4.6 33 Oeste 54 Oeste 1.8 -- -- 95
2019-01-22 14:00:00 4.6 24 Oeste 50 Oeste 2.6 -- -- 98
2019-01-22 13:00:00 4.9 23 Oeste 61 Oeste 2 -- -- 95
2019-01-22 12:00:00 5.3 23 Noroeste 49 Oeste 0.8 -- -- 97
2019-01-22 11:00:00 4.7 33 Noroeste 50 Oeste 3 -- -- 97
2019-01-22 10:00:00 4.9 21 Noroeste 42 Noroeste 2.4 -- -- 95
2019-01-22 09:00:00 5.1 26 Oeste 50 Oeste 1.6 -- -- 92
2019-01-22 08:00:00 6.2 15 Noroeste 32 Noroeste 0 -- -- 82
2019-01-22 07:00:00 5 15 Noroeste 29 Noroeste 0 -- -- 91
2019-01-22 06:00:00 4.9 16 Noroeste 32 Noroeste 0 -- -- 88
2019-01-22 05:00:00 5.8 17 Noroeste 28 Oeste 0 -- -- 76
2019-01-22 04:00:00 6.3 21 Noroeste 32 Oeste 0 -- -- 71
2019-01-22 03:00:00 4.8 4 Noroeste 14 Noroeste 0 -- -- 84
2019-01-22 02:00:00 4.7 6 Oeste 10 Noroeste 0 -- -- 85
2019-01-22 01:00:00 4.3 5 Sudoeste 9 Sudoeste 0 -- -- 91
2019-01-22 00:00:00 4.6 5 Noroeste 7 Noroeste 0 -- -- 89
2019-01-21 23:00:00 4.6 4 Sudoeste 6 Oeste 0 -- -- 89
2019-01-21 22:00:00 5.1 5 Oeste 13 Norte 0 -- -- 88
2019-01-21 21:00:00 5.2 5 Norte 12 Noroeste 0 -- -- 91
2019-01-21 20:00:00 5.5 7 Noroeste 13 Oeste 0 -- -- 93
2019-01-21 19:00:00 5.5 8 Noroeste 16 Noroeste 0 -- -- 92
2019-01-21 18:00:00 6 6 Oeste 18 Noroeste 0 -- -- 91
2019-01-21 17:00:00 6.4 13 Noroeste 19 Noroeste 0.2 -- -- 89
2019-01-21 16:00:00 7.5 9 Noroeste 17 Noroeste 0 -- -- 86
2019-01-21 15:00:00 7.9 6 Oeste 16 Oeste 0 -- -- 88
2019-01-21 14:00:00 8.2 6 Oeste 12 Noroeste 0 -- -- 93
2019-01-21 13:00:00 5.9 0 Calma 9 Norte 0.4 -- -- 100
2019-01-21 12:00:00 5.5 6 Norte 12 Norte 0.2 -- -- 100
2019-01-21 11:00:00 4.5 6 Noroeste 11 Noroeste 1.4 -- -- 100
2019-01-21 10:00:00 4.3 3 Oeste 5 Noroeste 0.8 -- -- 100
2019-01-21 09:00:00 3.9 2 Norte 5 Sur 0.4 -- -- 100
2019-01-21 08:00:00 3.9 5 Norte 15 Sudoeste 2.4 -- -- 100
2019-01-21 07:00:00 4 13 Sudeste 15 Sudeste 0.4 -- -- 100
2019-01-21 06:00:00 4.1 3 Nordeste 21 Sudoeste 0.8 -- -- 100
2019-01-21 05:00:00 4.3 14 Noroeste 27 Noroeste 2 -- -- 100
2019-01-21 04:00:00 4.7 6 Noroeste 15 Oeste 0.2 -- -- 100
2019-01-21 03:00:00 4.6 9 Oeste 17 Oeste 3.6 -- -- 100
2019-01-21 02:00:00 4.8 10 Norte 17 Norte 0.4 -- -- 100
2019-01-21 01:00:00 4.8 9 Noroeste 23 Oeste 0.2 -- -- 97
2019-01-21 00:00:00 4.9 18 Oeste 26 Oeste 1.4 -- -- 99
2019-01-20 23:00:00 5.3 7 Oeste 22 Oeste 0 -- -- 98
2019-01-20 22:00:00 5.5 16 Oeste 31 Oeste 1.2 -- -- 97
2019-01-20 21:00:00 5.6 15 Oeste 26 Oeste 0.6 -- -- 98
2019-01-20 20:00:00 5.8 10 Noroeste 30 Oeste 0 -- -- 94
2019-01-20 19:00:00 5.7 16 Oeste 33 Oeste 0.4 -- -- 95
2019-01-20 18:00:00 5.5 18 Sudoeste 42 Norte 1.4 -- -- 98
2019-01-20 17:00:00 7 8 Noroeste 32 Noroeste 1.2 -- -- 93
2019-01-20 16:00:00 7.2 14 Noroeste 27 Oeste 0.4 -- -- 95
2019-01-20 15:00:00 7.3 15 Oeste 37 Oeste 0.4 -- -- 94
2019-01-20 14:00:00 7 20 Oeste 36 Oeste 0.4 -- -- 92
2019-01-20 13:00:00 6.4 17 Oeste 35 Oeste 1.8 -- -- 97
2019-01-20 12:00:00 6.3 9 Oeste 23 Oeste 0.8 -- -- 97
2019-01-20 11:00:00 6.4 16 Oeste 39 Oeste 0 -- -- 94
2019-01-20 10:00:00 5.5 19 Noroeste 31 Oeste 0.8 -- -- 98
2019-01-20 09:00:00 5.1 19 Noroeste 30 Oeste 0.8 -- -- 98
2019-01-20 08:00:00 5.3 23 Oeste 36 Oeste 1 -- -- 97
2019-01-20 07:00:00 5.4 12 Noroeste 52 Oeste 0.4 -- -- 97
2019-01-20 06:00:00 6.1 32 Oeste 45 Oeste 0.2 -- -- 93
2019-01-20 05:00:00 6.2 21 Noroeste 37 Oeste 0 -- -- 95
2019-01-20 04:00:00 6.2 23 Oeste 38 Oeste 1.2 -- -- 98
2019-01-20 03:00:00 5.8 21 Oeste 39 Oeste 3 -- -- 100
2019-01-20 02:00:00 5.5 3 Nordeste 10 Oeste 3 -- -- 100
2019-01-20 01:00:00 5.7 5 Norte 24 Oeste 1.6 -- -- 100
2019-01-20 00:00:00 5.7 17 Oeste 29 Oeste 0.6 -- -- 100
2019-01-19 23:00:00 5.8 18 Oeste 27 Oeste 1.4 -- -- 100
2019-01-19 22:00:00 5.9 12 Oeste 19 Oeste 0.8 -- -- 100
2019-01-19 21:00:00 5.4 6 Sudoeste 8 Sudoeste 0.2 -- -- 100
2019-01-19 20:00:00 5.5 0 Calma 10 Sur 0.8 -- -- 100
2019-01-19 19:00:00 5.5 3 Sudeste 12 Sudeste 1 -- -- 100
2019-01-19 18:00:00 5.4 5 Este 19 Este 1.2 -- -- 100
2019-01-19 17:00:00 5.6 10 Sudeste 30 Sudeste 1 -- -- 100
2019-01-19 16:00:00 5.5 15 Este 24 Sudeste 2.2 -- -- 100
2019-01-19 15:00:00 5.5 9 Sudeste 24 Este 2.6 -- -- 99
2019-01-19 14:00:00 5.7 13 Sudeste 22 Sudeste 1.8 -- -- 98
2019-01-19 13:00:00 6.1 4 Sudeste 18 Sur 0.2 -- -- 94
2019-01-19 12:00:00 6.2 2 Sudeste 15 Este 0.2 -- -- 99
2019-01-19 11:00:00 5.4 9 Sudeste 14 Este 0 -- -- 100
2019-01-19 10:00:00 4.6 6 Sudeste 15 Este 0 -- -- 100
2019-01-19 09:00:00 4.2 9 Este 20 Sudeste 0 -- -- 100
2019-01-19 08:00:00 4 9 Este 15 Sudeste 0 -- -- 99
2019-01-19 07:00:00 5 3 Este 8 Sudeste 0 -- -- 96
2019-01-19 06:00:00 5.3 6 Este 8 Sudeste 0 -- -- 95
2019-01-19 05:00:00 5.8 2 Noroeste 15 Noroeste 0.6 -- -- 93
2019-01-19 04:00:00 6.1 10 Noroeste 18 Noroeste 0.2 -- -- 93
2019-01-19 03:00:00 6.2 10 Noroeste 17 Oeste 0.2 -- -- 98
2019-01-19 02:00:00 6.1 17 Noroeste 25 Oeste 0.2 -- -- 99
2019-01-19 01:00:00 6.3 12 Noroeste 18 Norte 0.2 -- -- 99
2019-01-19 00:00:00 6.2 12 Noroeste 23 Noroeste 0.4 -- -- 100